Time;durP1;ratioP1;P1;durP2;ratioP2;P2;SDS_P1;SDS_P2;PMS_P1;PMS_P2;Temp;Humidity;BMP_temperature;BMP_pressure;BME280_temperature;BME280_humidity;BME280_pressure;Samples;Min_cycle;Max_cycle;Signal;HPM_P1;HPM_P2
2023/08/22 00:01:04;;;;;;;10.07;6.47;;;24.00;98.00;;;;;;5054002;28;20883;-68
2023/08/22 00:03:31;;;;;;;11.67;6.70;;;23.80;98.00;;;;;;5054166;28;20553;-68
2023/08/22 00:05:58;;;;;;;14.07;7.00;;;23.70;98.00;;;;;;5053821;28;20445;-68
2023/08/22 00:08:26;;;;;;;12.17;7.17;;;23.60;98.00;;;;;;5053972;28;21016;-68
2023/08/22 00:10:55;;;;;;;13.57;6.37;;;23.60;98.00;;;;;;5054120;28;20879;-68
2023/08/22 00:13:22;;;;;;;10.87;6.60;;;23.70;98.00;;;;;;5053732;28;20449;-68
2023/08/22 00:15:49;;;;;;;15.57;6.67;;;23.70;98.00;;;;;;5053713;28;20850;-68
2023/08/22 00:18:17;;;;;;;11.90;6.40;;;23.70;98.00;;;;;;5053669;28;20458;-68
2023/08/22 00:20:44;;;;;;;13.50;6.80;;;23.60;98.00;;;;;;5052778;28;20468;-68
2023/08/22 00:23:11;;;;;;;14.53;6.90;;;23.50;98.00;;;;;;5053698;28;20479;-68
2023/08/22 00:25:39;;;;;;;11.13;6.17;;;23.40;98.00;;;;;;5052254;28;20512;-68
2023/08/22 00:28:10;;;;;;;13.67;6.80;;;23.40;98.00;;;;;;5053413;28;20969;-68
2023/08/22 00:30:37;;;;;;;12.00;6.77;;;23.40;98.00;;;;;;5053630;28;20458;-68
2023/08/22 00:33:04;;;;;;;10.30;6.50;;;23.20;98.00;;;;;;5053477;28;20812;-68
2023/08/22 00:35:31;;;;;;;10.30;6.33;;;23.20;98.00;;;;;;5053036;28;20490;-68
2023/08/22 00:37:58;;;;;;;11.60;6.47;;;23.30;98.00;;;;;;5053241;28;20454;-68
2023/08/22 00:40:25;;;;;;;11.53;6.70;;;23.40;98.00;;;;;;5053043;28;20966;-68
2023/08/22 00:42:52;;;;;;;13.80;7.37;;;23.40;98.00;;;;;;5053141;28;20981;-68
2023/08/22 00:45:21;;;;;;;11.97;6.80;;;23.40;98.00;;;;;;5053317;28;20465;-68
2023/08/22 00:47:48;;;;;;;14.40;7.37;;;23.20;98.00;;;;;;5052995;28;20457;-68
2023/08/22 00:50:16;;;;;;;11.77;6.53;;;23.10;98.00;;;;;;5052788;28;20466;-68
2023/08/22 00:52:43;;;;;;;12.00;6.60;;;23.10;98.00;;;;;;5053019;28;20987;-68
2023/08/22 00:55:10;;;;;;;11.00;6.70;;;23.20;98.00;;;;;;5052812;28;20481;-68
2023/08/22 00:57:38;;;;;;;10.57;6.10;;;23.10;98.00;;;;;;5052112;28;20515;-68
2023/08/22 01:00:07;;;;;;;12.60;6.40;;;23.20;98.00;;;;;;5052796;28;20935;-68
2023/08/22 01:02:35;;;;;;;10.90;6.30;;;23.20;98.00;;;;;;5052774;28;20457;-68
2023/08/22 01:05:03;;;;;;;11.50;6.40;;;23.10;98.00;;;;;;5052821;28;20638;-68
2023/08/22 01:07:35;;;;;;;11.47;6.40;;;23.30;98.00;;;;;;5052824;28;20438;-68
2023/08/22 01:10:11;;;;;;;17.30;6.90;;;23.20;98.00;;;;;;5052743;28;20457;-68
2023/08/22 01:12:43;;;;;;;11.70;6.50;;;23.20;98.00;;;;;;5052737;28;20545;-68
2023/08/22 01:15:21;;;;;;;9.10;5.70;;;23.10;98.00;;;;;;5052270;28;20481;-68
2023/08/22 01:17:50;;;;;;;19.83;7.03;;;23.10;98.00;;;;;;5052493;28;20456;-68
2023/08/22 01:20:17;;;;;;;10.00;6.13;;;23.00;98.00;;;;;;5052406;28;20454;-68
2023/08/22 01:22:47;;;;;;;11.23;6.60;;;23.00;98.00;;;;;;5052384;28;20453;-68
2023/08/22 01:25:14;;;;;;;11.33;6.57;;;22.90;98.00;;;;;;5052279;28;20823;-68
2023/08/22 01:27:50;;;;;;;11.00;6.27;;;22.90;98.00;;;;;;5052467;28;20449;-68
2023/08/22 01:30:23;;;;;;;12.97;6.90;;;23.00;98.00;;;;;;5051027;28;20465;-68
2023/08/22 01:32:54;;;;;;;12.13;7.27;;;22.90;98.00;;;;;;5052387;28;20487;-68
2023/08/22 01:35:24;;;;;;;12.47;6.60;;;22.90;98.00;;;;;;5052203;28;20554;-68
2023/08/22 01:37:54;;;;;;;9.50;5.63;;;22.90;98.00;;;;;;5052216;28;20457;-68
2023/08/22 01:40:25;;;;;;;13.10;7.27;;;23.00;98.00;;;;;;5052013;28;20469;-68
2023/08/22 01:42:52;;;;;;;10.90;6.80;;;22.90;98.00;;;;;;5051867;28;20883;-68
2023/08/22 01:45:19;;;;;;;9.90;6.40;;;22.90;98.00;;;;;;5052069;28;20461;-68
2023/08/22 01:47:46;;;;;;;12.40;7.00;;;22.90;98.00;;;;;;5052041;28;20477;-68
2023/08/22 01:50:13;;;;;;;13.00;7.07;;;22.80;98.00;;;;;;5051639;28;20458;-68
2023/08/22 01:52:40;;;;;;;12.27;6.67;;;22.70;98.00;;;;;;5052074;28;20507;-68
2023/08/22 01:55:14;;;;;;;11.47;6.77;;;22.70;98.00;;;;;;5051829;28;20481;-68
2023/08/22 01:57:41;;;;;;;11.00;6.40;;;22.70;98.00;;;;;;5052356;28;20449;-68
2023/08/22 02:00:10;;;;;;;13.53;7.30;;;22.70;98.00;;;;;;5051774;28;20461;-68
2023/08/22 02:02:37;;;;;;;11.93;6.70;;;22.60;98.00;;;;;;5051748;28;21037;-68
2023/08/22 02:05:05;;;;;;;14.80;6.27;;;22.60;98.00;;;;;;5051435;28;20493;-68
2023/08/22 02:07:33;;;;;;;11.57;6.80;;;22.60;98.00;;;;;;5050356;28;20462;-68
2023/08/22 02:10:00;;;;;;;11.30;6.63;;;22.70;98.00;;;;;;5051400;28;20457;-68
2023/08/22 02:12:28;;;;;;;10.80;6.70;;;22.80;98.00;;;;;;5051580;28;20959;-68
2023/08/22 02:14:55;;;;;;;22.93;7.60;;;22.80;98.00;;;;;;5051289;28;20453;-68
2023/08/22 02:17:22;;;;;;;12.33;6.37;;;22.80;98.00;;;;;;5051309;28;20481;-68
2023/08/22 02:19:49;;;;;;;11.20;6.27;;;22.80;98.00;;;;;;5051294;28;20461;-68
2023/08/22 02:22:16;;;;;;;14.60;6.83;;;23.00;98.00;;;;;;5051248;28;20454;-68
2023/08/22 02:24:43;;;;;;;14.33;7.00;;;23.00;98.00;;;;;;5051315;28;20450;-68
2023/08/22 02:27:12;;;;;;;12.20;6.30;;;22.90;98.00;;;;;;5051263;28;20450;-68
2023/08/22 02:29:41;;;;;;;12.17;6.57;;;22.80;98.00;;;;;;5051595;28;20476;-68
2023/08/22 02:32:11;;;;;;;14.10;6.60;;;22.80;98.00;;;;;;5051167;28;20458;-68
2023/08/22 02:34:39;;;;;;;10.83;6.10;;;22.60;98.00;;;;;;5050976;28;20457;-68
2023/08/22 02:37:07;;;;;;;10.50;6.33;;;22.70;98.00;;;;;;5051152;28;20509;-68
2023/08/22 02:39:34;;;;;;;12.20;6.97;;;22.70;98.00;;;;;;5051236;28;20488;-68
2023/08/22 02:42:01;;;;;;;9.97;6.20;;;22.60;98.00;;;;;;5051251;28;20461;-68
2023/08/22 02:44:28;;;;;;;11.77;7.07;;;22.50;98.00;;;;;;5051035;28;20445;-68
2023/08/22 02:46:57;;;;;;;16.00;7.07;;;22.60;98.00;;;;;;5051188;28;20478;-68
2023/08/22 02:49:24;;;;;;;10.90;6.50;;;22.70;98.00;;;;;;5050970;28;20462;-68
2023/08/22 02:51:51;;;;;;;10.20;5.93;;;22.70;98.00;;;;;;5051448;28;20457;-68
2023/08/22 02:54:19;;;;;;;12.73;6.70;;;22.60;98.00;;;;;;5051090;28;20449;-68
2023/08/22 02:56:46;;;;;;;11.87;6.13;;;22.70;98.00;;;;;;5050923;28;20856;-68
2023/08/22 02:59:16;;;;;;;15.63;6.90;;;22.90;98.00;;;;;;5050759;28;20458;-68
2023/08/22 03:01:43;;;;;;;10.27;6.07;;;22.70;98.00;;;;;;5051048;28;20992;-68
2023/08/22 03:04:12;;;;;;;12.93;6.80;;;22.50;98.00;;;;;;5050798;28;20446;-68
2023/08/22 03:06:39;;;;;;;12.13;6.23;;;22.40;98.00;;;;;;5051079;28;20504;-68
2023/08/22 03:09:06;;;;;;;11.80;6.60;;;22.30;98.00;;;;;;5050820;28;20468;-68
2023/08/22 03:11:33;;;;;;;13.80;7.13;;;22.10;98.00;;;;;;5050881;28;20943;-68
2023/08/22 03:14:00;;;;;;;16.17;8.90;;;22.10;98.00;;;;;;5050841;28;20955;-68
2023/08/22 03:16:27;;;;;;;14.10;7.90;;;22.20;98.00;;;;;;5050759;28;20485;-68
2023/08/22 03:18:56;;;;;;;11.80;6.40;;;22.10;98.00;;;;;;5050970;28;20461;-68
2023/08/22 03:21:25;;;;;;;16.83;7.20;;;22.20;98.00;;;;;;5054678;28;20441;-68
2023/08/22 03:23:52;;;;;;;13.00;7.00;;;22.20;98.00;;;;;;5054680;28;20512;-68
2023/08/22 03:26:19;;;;;;;12.80;7.10;;;22.10;98.00;;;;;;5054650;28;20457;-68
2023/08/22 03:28:47;;;;;;;12.40;6.73;;;22.10;98.00;;;;;;5054571;28;20441;-68
2023/08/22 03:31:15;;;;;;;11.50;6.90;;;22.00;98.00;;;;;;5054603;28;20812;-68
2023/08/22 03:33:42;;;;;;;14.80;7.23;;;22.00;98.00;;;;;;5054560;28;21077;-68
2023/08/22 03:36:09;;;;;;;10.57;6.40;;;21.90;98.00;;;;;;5054360;28;20512;-68
2023/08/22 03:38:37;;;;;;;14.17;7.20;;;21.90;98.00;;;;;;5054507;28;20465;-68
2023/08/22 03:41:04;;;;;;;9.70;6.10;;;21.90;98.00;;;;;;5054481;28;20527;-68
2023/08/22 03:43:32;;;;;;;15.10;6.67;;;21.90;98.00;;;;;;5054649;28;20817;-68
2023/08/22 03:45:59;;;;;;;11.77;7.00;;;22.00;98.00;;;;;;5054460;28;20528;-68
2023/08/22 03:48:26;;;;;;;12.00;6.87;;;22.00;98.00;;;;;;5054526;28;20480;-68
2023/08/22 03:50:53;;;;;;;14.30;6.97;;;22.10;98.00;;;;;;5052879;28;20461;-68
2023/08/22 03:53:21;;;;;;;11.87;6.40;;;22.10;98.00;;;;;;5054127;28;20456;-68
2023/08/22 03:55:50;;;;;;;11.43;6.87;;;22.00;98.00;;;;;;5053994;28;20489;-68
2023/08/22 03:58:17;;;;;;;10.70;6.33;;;22.10;98.00;;;;;;5054083;28;20863;-68
2023/08/22 04:00:44;;;;;;;10.70;6.20;;;22.10;98.00;;;;;;5053972;28;20457;-68
2023/08/22 04:03:11;;;;;;;11.10;6.47;;;22.10;98.00;;;;;;5053914;28;20967;-68
2023/08/22 04:05:41;;;;;;;10.20;6.10;;;22.10;98.00;;;;;;5053892;28;20456;-68
2023/08/22 04:08:08;;;;;;;10.77;6.10;;;22.10;98.00;;;;;;5053997;28;20465;-68
2023/08/22 04:10:35;;;;;;;11.37;6.40;;;22.00;98.00;;;;;;5053790;28;20950;-68
2023/08/22 04:13:03;;;;;;;10.43;6.23;;;21.80;98.00;;;;;;5053511;28;20487;-68
2023/08/22 04:15:31;;;;;;;12.23;6.87;;;21.70;98.00;;;;;;5053676;28;20450;-68
2023/08/22 04:17:58;;;;;;;11.23;6.53;;;21.60;98.00;;;;;;5053832;28;20453;-68
2023/08/22 04:20:25;;;;;;;12.00;6.30;;;21.60;98.00;;;;;;5053494;28;20446;-68
2023/08/22 04:22:52;;;;;;;12.97;6.40;;;21.80;98.00;;;;;;5053672;28;20454;-68
2023/08/22 04:25:19;;;;;;;12.10;6.93;;;21.90;98.00;;;;;;5053449;28;20465;-68
2023/08/22 04:27:46;;;;;;;11.83;6.57;;;21.80;98.00;;;;;;5053300;28;20461;-68
2023/08/22 04:30:15;;;;;;;14.40;6.20;;;21.80;98.00;;;;;;5052580;28;20670;-68
2023/08/22 04:32:42;;;;;;;12.80;6.87;;;21.70;98.00;;;;;;5052602;28;20457;-68
2023/08/22 04:35:09;;;;;;;11.40;6.40;;;21.70;98.00;;;;;;5053217;28;20519;-68
2023/08/22 04:37:36;;;;;;;13.67;7.47;;;21.70;98.00;;;;;;5053495;28;21088;-68
2023/08/22 04:40:04;;;;;;;11.70;6.53;;;21.70;98.00;;;;;;5053555;28;20519;-68
2023/08/22 04:42:31;;;;;;;20.33;7.97;;;21.80;98.00;;;;;;5053319;28;20477;-68
2023/08/22 04:44:59;;;;;;;13.20;7.43;;;21.60;98.00;;;;;;5053160;28;20776;-68
2023/08/22 04:47:31;;;;;;;11.03;6.63;;;21.60;98.00;;;;;;5053211;28;20667;-68
2023/08/22 04:49:59;;;;;;;13.83;7.20;;;21.50;98.00;;;;;;5053027;28;20465;-68
2023/08/22 04:52:26;;;;;;;13.70;7.43;;;21.50;98.00;;;;;;5053117;28;20527;-68
2023/08/22 04:54:55;;;;;;;13.90;7.10;;;21.60;98.00;;;;;;5052714;28;20878;-68
2023/08/22 04:57:23;;;;;;;13.57;7.20;;;21.60;98.00;;;;;;5052816;28;20508;-68
2023/08/22 04:59:50;;;;;;;14.77;7.30;;;21.50;98.00;;;;;;5052905;28;20821;-68
2023/08/22 05:02:19;;;;;;;14.67;7.33;;;21.40;98.00;;;;;;5052146;28;20644;-68
2023/08/22 05:04:47;;;;;;;15.77;7.63;;;21.50;98.00;;;;;;5052889;28;20510;-68
2023/08/22 05:07:14;;;;;;;15.73;7.60;;;21.60;98.00;;;;;;5052697;28;20454;-68
2023/08/22 05:09:41;;;;;;;12.83;7.00;;;21.70;98.00;;;;;;5052802;28;20449;-68
2023/08/22 05:12:09;;;;;;;12.50;7.10;;;21.80;98.00;;;;;;5052545;28;20454;-68
2023/08/22 05:14:36;;;;;;;12.73;6.90;;;21.70;98.00;;;;;;5052516;28;20449;-68
2023/08/22 05:17:03;;;;;;;12.23;6.40;;;21.80;98.00;;;;;;5052545;28;20564;-68
2023/08/22 05:19:31;;;;;;;14.73;7.40;;;21.80;98.00;;;;;;5052491;28;20482;-68
2023/08/22 05:22:02;;;;;;;11.30;7.00;;;21.90;98.00;;;;;;5052558;28;20453;-68
2023/08/22 05:24:28;;;;;;;12.97;8.00;;;22.00;98.00;;;;;;5052320;28;20504;-68
2023/08/22 05:26:56;;;;;;;13.10;7.10;;;22.00;98.00;;;;;;5052364;28;20450;-68
2023/08/22 05:29:23;;;;;;;14.67;7.20;;;21.80;98.00;;;;;;5052244;28;20449;-68
2023/08/22 05:31:50;;;;;;;15.40;8.30;;;21.80;98.00;;;;;;5052512;28;20442;-68
2023/08/22 05:34:17;;;;;;;12.73;7.13;;;21.70;98.00;;;;;;5052509;28;20841;-68
2023/08/22 05:36:44;;;;;;;12.87;7.13;;;21.70;98.00;;;;;;5051890;28;20485;-68
2023/08/22 05:39:12;;;;;;;13.40;7.90;;;21.70;98.00;;;;;;5052135;28;20923;-68
2023/08/22 05:41:40;;;;;;;14.40;8.03;;;21.70;98.00;;;;;;5051980;28;20818;-68
2023/08/22 05:44:07;;;;;;;15.33;8.23;;;21.70;98.00;;;;;;5051786;28;20448;-68
2023/08/22 05:46:34;;;;;;;14.20;7.53;;;21.80;98.00;;;;;;5051969;28;20453;-68
2023/08/22 05:49:01;;;;;;;11.17;6.40;;;21.80;98.00;;;;;;5051686;28;20457;-68
2023/08/22 05:51:28;;;;;;;13.63;7.67;;;21.80;98.00;;;;;;5051997;28;20734;-68
2023/08/22 05:53:55;;;;;;;14.13;8.00;;;21.90;98.00;;;;;;5051769;28;20450;-68
2023/08/22 05:56:24;;;;;;;20.53;8.00;;;21.90;98.00;;;;;;5051351;28;20571;-68
2023/08/22 05:58:51;;;;;;;11.93;7.40;;;22.00;98.00;;;;;;5051664;28;20514;-64
2023/08/22 06:01:18;;;;;;;13.80;7.40;;;22.00;98.00;;;;;;5051558;28;20454;-64
2023/08/22 06:03:45;;;;;;;12.20;6.43;;;22.10;98.00;;;;;;5051610;28;20951;-64
2023/08/22 06:06:12;;;;;;;13.43;6.90;;;22.20;98.00;;;;;;5051125;28;20461;-64
2023/08/22 06:08:39;;;;;;;12.57;7.40;;;22.40;98.00;;;;;;5051571;28;20473;-64
2023/08/22 06:11:06;;;;;;;15.57;7.63;;;22.50;98.00;;;;;;5051477;28;20951;-64
2023/08/22 06:13:35;;;;;;;14.30;7.90;;;22.70;98.00;;;;;;5051748;28;20450;-64
2023/08/22 06:16:02;;;;;;;11.73;6.83;;;22.90;98.00;;;;;;5051455;28;20868;-64
2023/08/22 06:18:29;;;;;;;12.50;6.60;;;23.10;98.00;;;;;;5050403;28;20453;-64
2023/08/22 06:20:59;;;;;;;9.53;5.93;;;23.40;98.00;;;;;;5050355;28;20635;-64
2023/08/22 06:23:27;;;;;;;11.93;6.80;;;23.60;98.00;;;;;;5051566;28;20489;-64
2023/08/22 06:25:55;;;;;;;11.53;6.67;;;23.90;98.00;;;;;;5051676;28;20551;-64
2023/08/22 06:28:22;;;;;;;15.50;7.43;;;24.20;98.00;;;;;;5051570;28;20515;-65
2023/08/22 06:30:51;;;;;;;13.70;7.50;;;24.50;98.00;;;;;;5050010;28;20455;-64
2023/08/22 06:33:18;;;;;;;12.90;7.30;;;24.80;98.00;;;;;;5051411;28;20943;-65
2023/08/22 06:35:47;;;;;;;13.30;7.73;;;25.00;98.00;;;;;;5051468;28;20450;-65
2023/08/22 06:38:14;;;;;;;12.70;7.10;;;25.30;98.00;;;;;;5051105;28;20482;-64
2023/08/22 06:40:41;;;;;;;13.03;7.47;;;25.40;98.00;;;;;;5051231;28;20461;-65
2023/08/22 06:43:08;;;;;;;10.97;6.70;;;25.50;98.00;;;;;;5049844;28;20461;-65
2023/08/22 06:45:37;;;;;;;12.30;6.80;;;25.60;98.00;;;;;;5051137;28;20456;-65
2023/08/22 06:48:06;;;;;;;11.33;6.97;;;25.70;98.00;;;;;;5051174;28;20454;-64
2023/08/22 06:50:33;;;;;;;13.50;7.60;;;25.90;98.00;;;;;;5050841;28;20472;-64
2023/08/22 06:53:01;;;;;;;12.20;7.03;;;26.00;98.00;;;;;;5051265;28;20472;-64
2023/08/22 06:55:28;;;;;;;13.00;7.13;;;26.00;98.00;;;;;;5053953;28;20449;-64
2023/08/22 06:57:55;;;;;;;14.83;7.70;;;26.10;98.00;;;;;;5053886;28;20492;-64
2023/08/22 07:00:22;;;;;;;12.43;7.07;;;26.20;98.00;;;;;;5053879;28;20473;-65
2023/08/22 07:02:49;;;;;;;15.50;8.40;;;26.20;98.00;;;;;;5054888;28;20460;-64
2023/08/22 07:05:21;;;;;;;13.00;7.30;;;26.10;98.00;;;;;;5055425;28;20927;-64
2023/08/22 07:07:48;;;;;;;13.13;7.93;;;26.10;98.00;;;;;;5055576;28;20449;-65
2023/08/22 07:10:15;;;;;;;13.33;8.00;;;26.10;98.00;;;;;;5055632;28;20461;-64
2023/08/22 07:12:42;;;;;;;14.10;7.90;;;26.10;98.00;;;;;;5055653;28;20448;-64
2023/08/22 07:15:13;;;;;;;15.17;7.93;;;26.00;98.00;;;;;;5054520;28;20457;-64
2023/08/22 07:17:41;;;;;;;14.60;7.73;;;25.90;98.00;;;;;;5054871;28;20552;-64
2023/08/22 07:20:09;;;;;;;16.03;7.80;;;25.80;98.00;;;;;;5054918;28;20453;-63
2023/08/22 07:22:37;;;;;;;13.63;8.03;;;25.60;98.00;;;;;;5055160;28;20452;-63
2023/08/22 07:25:05;;;;;;;11.23;7.40;;;25.70;98.00;;;;;;5054769;28;20507;-64
2023/08/22 07:27:32;;;;;;;20.23;7.87;;;25.70;98.00;;;;;;5054297;28;20462;-68
2023/08/22 07:29:59;;;;;;;11.87;7.93;;;25.80;98.00;;;;;;5054689;28;20500;-64
2023/08/22 07:32:27;;;;;;;13.90;8.43;;;25.90;98.00;;;;;;5053512;28;20954;-64
2023/08/22 07:34:54;;;;;;;27.23;10.30;;;26.00;98.00;;;;;;5054998;28;20450;-64
2023/08/22 07:37:21;;;;;;;41.23;12.23;;;25.90;98.00;;;;;;5054934;28;20485;-63
2023/08/22 07:39:50;;;;;;;17.83;8.10;;;25.90;98.00;;;;;;5053957;28;20533;-64
2023/08/22 07:42:17;;;;;;;14.67;8.33;;;26.10;98.00;;;;;;5055000;28;20461;-64
2023/08/22 07:44:44;;;;;;;15.40;7.70;;;26.20;98.00;;;;;;5054926;28;20769;-64
2023/08/22 07:47:11;;;;;;;15.67;8.10;;;26.30;98.00;;;;;;5054841;28;20457;-64
2023/08/22 07:49:38;;;;;;;12.63;7.50;;;26.40;98.00;;;;;;5054791;28;20461;-64
2023/08/22 07:52:08;;;;;;;11.80;7.80;;;26.40;98.00;;;;;;5037046;28;20854;-64
2023/08/22 07:54:42;;;;;;;14.33;7.70;;;26.50;98.00;;;;;;5053637;28;20453;-64
2023/08/22 07:57:11;;;;;;;17.00;8.00;;;26.50;98.00;;;;;;5054784;28;20486;-65
2023/08/22 07:59:39;;;;;;;14.70;7.87;;;26.60;98.00;;;;;;5054934;28;20449;-65
2023/08/22 08:02:06;;;;;;;11.30;7.00;;;26.70;98.00;;;;;;5054859;28;20477;-64
2023/08/22 08:04:34;;;;;;;14.70;8.27;;;26.70;98.00;;;;;;5054572;28;20442;-64
2023/08/22 08:07:03;;;;;;;12.90;8.23;;;26.70;98.00;;;;;;5053284;28;20963;-64
2023/08/22 08:09:30;;;;;;;14.17;8.70;;;26.70;98.00;;;;;;5054543;28;20461;-65
2023/08/22 08:11:57;;;;;;;19.83;9.10;;;26.90;98.00;;;;;;5053659;28;20452;-64
2023/08/22 08:14:25;;;;;;;11.87;7.57;;;27.00;98.00;;;;;;5054475;28;20460;-64
2023/08/22 08:16:53;;;;;;;11.53;7.10;;;27.00;98.00;;;;;;5054504;28;20478;-64
2023/08/22 08:19:21;;;;;;;14.07;8.57;;;27.10;98.00;;;;;;5054322;28;20481;-65
2023/08/22 08:21:48;;;;;;;12.20;7.27;;;27.10;98.00;;;;;;5053344;28;20860;-64
2023/08/22 08:24:17;;;;;;;12.73;7.57;;;27.10;98.00;;;;;;5052881;28;20461;-67
2023/08/22 08:26:44;;;;;;;9.83;6.30;;;27.20;98.00;;;;;;5054291;28;20478;-67
2023/08/22 08:29:11;;;;;;;16.10;6.90;;;27.30;98.00;;;;;;5052685;28;20533;-66
2023/08/22 08:31:40;;;;;;;10.47;6.10;;;27.30;98.00;;;;;;5053734;28;20461;-68
2023/08/22 08:34:07;;;;;;;10.50;6.27;;;27.40;98.00;;;;;;5053816;28;20508;-66
2023/08/22 08:36:34;;;;;;;10.30;6.17;;;27.50;98.00;;;;;;5053885;28;20446;-66
2023/08/22 08:39:01;;;;;;;10.90;6.60;;;27.70;98.00;;;;;;5053689;28;20998;-67
2023/08/22 08:41:35;;;;;;;10.60;6.57;;;27.90;98.00;;;;;;5053667;28;20457;-67
2023/08/22 08:44:03;;;;;;;10.43;6.70;;;27.90;98.00;;;;;;5053923;28;20794;-67
2023/08/22 08:46:31;;;;;;;9.37;6.40;;;28.00;98.00;;;;;;5053713;28;20445;-67
2023/08/22 08:48:59;;;;;;;12.20;7.00;;;28.10;98.00;;;;;;5053554;28;20460;-67
2023/08/22 08:51:27;;;;;;;10.43;6.53;;;28.30;98.00;;;;;;5053755;28;20836;-67
2023/08/22 08:53:56;;;;;;;14.70;7.43;;;28.40;98.00;;;;;;5052761;28;20450;-64
2023/08/22 08:56:23;;;;;;;16.17;7.77;;;28.50;98.00;;;;;;5053658;28;20454;-65
2023/08/22 08:58:50;;;;;;;10.77;7.00;;;28.60;98.00;;;;;;5053736;28;20488;-65
2023/08/22 09:01:18;;;;;;;10.63;6.70;;;28.70;98.00;;;;;;5051607;28;20469;-66
2023/08/22 09:03:45;;;;;;;17.73;7.57;;;28.70;98.00;;;;;;5053744;28;20503;-66
2023/08/22 09:06:13;;;;;;;11.40;7.50;;;28.80;98.00;;;;;;5053447;28;20538;-66
2023/08/22 09:08:41;;;;;;;11.77;6.70;;;28.90;98.00;;;;;;5053795;28;20449;-66
2023/08/22 09:11:08;;;;;;;12.70;7.37;;;29.00;98.00;;;;;;5052642;28;20472;-65
2023/08/22 09:13:39;;;;;;;13.13;7.63;;;29.00;98.00;;;;;;5053452;28;20958;-65
2023/08/22 09:16:09;;;;;;;10.40;7.00;;;29.10;98.00;;;;;;5053528;28;20458;-65
2023/08/22 09:18:42;;;;;;;12.50;7.30;;;29.10;98.00;;;;;;5052549;28;20569;-65
2023/08/22 09:21:10;;;;;;;11.60;6.60;;;29.20;98.00;;;;;;5053211;28;20532;-65
2023/08/22 09:23:42;;;;;;;11.10;7.60;;;29.30;98.00;;;;;;5053169;28;20958;-67
2023/08/22 09:26:10;;;;;;;9.97;6.60;;;29.40;98.00;;;;;;5053190;28;20507;-67
2023/08/22 09:28:40;;;;;;;10.53;7.00;;;29.50;98.00;;;;;;5053002;28;20461;-68
2023/08/22 09:31:07;;;;;;;13.50;7.10;;;29.70;98.00;;;;;;5051772;28;20484;-68
2023/08/22 09:33:45;;;;;;;11.30;7.17;;;29.70;98.00;;;;;;5051712;28;20485;-69
2023/08/22 09:36:12;;;;;;;9.43;6.23;;;29.90;98.00;;;;;;5052953;28;20489;-68
2023/08/22 09:38:52;;;;;;;10.53;6.67;;;30.00;98.00;;;;;;5052909;28;20568;-68
2023/08/22 09:41:23;;;;;;;11.40;7.03;;;30.20;98.00;;;;;;5051771;28;20477;-66
2023/08/22 09:43:54;;;;;;;12.30;6.63;;;30.20;98.00;;;;;;5052969;28;20485;-68
2023/08/22 09:46:22;;;;;;;9.80;6.50;;;30.30;98.00;;;;;;5052746;28;20553;-63
2023/08/22 09:48:50;;;;;;;10.27;6.17;;;30.40;98.00;;;;;;5252350;22;20494;-65
2023/08/22 09:51:20;;;;;;;11.60;6.30;;;30.50;98.00;;;;;;5063558;28;20448;-67
2023/08/22 09:54:03;;;;;;;9.10;6.03;;;30.60;98.00;;;;;;5416550;22;20459;-68
2023/08/22 09:56:33;;;;;;;9.67;5.70;;;30.60;98.00;;;;;;5054301;28;21089;-66
2023/08/22 09:59:04;;;;;;;7.50;5.00;;;30.50;98.00;;;;;;5057942;28;21011;-65
2023/08/22 10:01:33;;;;;;;8.07;5.70;;;30.70;98.00;;;;;;5052396;28;20458;-65
2023/08/22 10:04:03;;;;;;;7.83;5.00;;;30.80;98.00;;;;;;5434445;22;20513;-68
2023/08/22 10:06:32;;;;;;;8.43;5.30;;;31.00;98.00;;;;;;5035217;28;20536;-66
2023/08/22 10:09:07;;;;;;;9.60;5.80;;;31.20;98.00;;;;;;5052825;28;20472;-68
2023/08/22 10:11:38;;;;;;;10.30;6.37;;;31.20;98.00;;;;;;5052227;28;20536;-69
2023/08/22 10:16:39;;;;;;;10.10;6.40;;;31.40;98.00;;;;;;5267007;22;20477;-68
2023/08/22 10:19:10;;;;;;;10.13;6.17;;;31.50;98.00;;;;;;5072014;28;20476;-69
2023/08/22 10:21:44;;;;;;;9.50;5.90;;;31.70;98.00;;;;;;5072031;28;20456;-68
2023/08/22 10:24:23;;;;;;;9.60;6.30;;;31.80;98.00;;;;;;5072076;28;20463;-68
2023/08/22 10:27:00;;;;;;;11.50;6.70;;;32.00;98.00;;;;;;5072102;28;20451;-67
2023/08/22 10:29:33;;;;;;;10.93;6.90;;;32.00;98.00;;;;;;5071959;28;20484;-68
2023/08/22 10:32:21;;;;;;;8.20;6.00;;;32.00;98.00;;;;;;5072122;28;20463;-68
2023/08/22 10:35:27;;;;;;;10.50;6.53;;;32.00;98.00;;;;;;5071833;28;20453;-68
2023/08/22 10:37:56;;;;;;;11.50;6.80;;;32.20;98.00;;;;;;5071952;28;20534;-69
2023/08/22 10:40:30;;;;;;;9.40;6.17;;;32.40;98.00;;;;;;5071852;28;20539;-69
2023/08/22 10:43:12;;;;;;;8.93;6.00;;;32.40;98.00;;;;;;5071939;28;20460;-69
2023/08/22 10:45:57;;;;;;;8.27;5.63;;;32.40;98.00;;;;;;5071950;28;20467;-68
2023/08/22 10:48:27;;;;;;;10.20;5.70;;;32.40;97.80;;;;;;5054103;28;20453;-68
2023/08/22 10:51:06;;;;;;;9.07;5.90;;;32.50;98.00;;;;;;5071813;28;20451;-68
2023/08/22 10:53:42;;;;;;;10.20;5.73;;;32.70;97.70;;;;;;5071959;28;20456;-67
2023/08/22 10:56:23;;;;;;;10.20;5.80;;;32.80;97.00;;;;;;5053690;28;20459;-65
2023/08/22 10:59:00;;;;;;;8.50;5.70;;;32.90;97.50;;;;;;5071918;28;20581;-65
2023/08/22 11:01:28;;;;;;;9.00;6.23;;;33.10;96.20;;;;;;5072039;28;20476;-67
2023/08/22 11:03:57;;;;;;;9.50;5.50;;;33.10;95.90;;;;;;5071941;28;20510;-67
2023/08/22 11:06:25;;;;;;;8.83;5.60;;;33.20;96.70;;;;;;5071664;28;20452;-68
2023/08/22 11:08:52;;;;;;;10.03;5.27;;;33.40;95.10;;;;;;5071408;28;20502;-66
2023/08/22 11:11:21;;;;;;;10.07;5.93;;;33.40;94.90;;;;;;5071606;28;20485;-68
2023/08/22 11:13:49;;;;;;;10.03;5.77;;;33.30;93.30;;;;;;5071248;28;20459;-67
2023/08/22 11:16:18;;;;;;;8.52;5.13;;;33.30;95.30;;;;;;5070584;28;20453;-70
2023/08/22 11:18:48;;;;;;;10.67;5.80;;;33.40;94.20;;;;;;5071470;28;20680;-68
2023/08/22 11:23:45;;;;;;;7.03;4.97;;;33.50;92.70;;;;;;5253352;22;20485;-70
2023/08/22 11:26:13;;;;;;;8.73;5.23;;;33.60;93.20;;;;;;5071224;28;20953;-69
2023/08/22 11:28:42;;;;;;;7.10;4.70;;;33.70;94.40;;;;;;5071498;28;21012;-69
2023/08/22 11:31:15;;;;;;;7.57;5.47;;;33.80;93.60;;;;;;5071347;28;20449;-68
2023/08/22 11:33:50;;;;;;;7.93;4.90;;;33.90;92.80;;;;;;5071603;28;20558;-70
2023/08/22 11:36:18;;;;;;;6.80;4.93;;;34.00;92.60;;;;;;5071284;28;20946;-68
2023/08/22 11:38:52;;;;;;;7.70;5.30;;;34.10;91.60;;;;;;5070267;28;20577;-69
2023/08/22 11:41:21;;;;;;;6.80;4.80;;;34.20;91.50;;;;;;5073823;28;20802;-68
2023/08/22 11:43:52;;;;;;;10.20;4.77;;;34.10;91.40;;;;;;5074022;28;20481;-68
2023/08/22 11:46:23;;;;;;;7.83;4.87;;;34.10;92.40;;;;;;5075056;28;20866;-68
2023/08/22 11:48:51;;;;;;;7.23;4.93;;;34.20;92.50;;;;;;5075012;28;20452;-69
2023/08/22 11:51:20;;;;;;;9.43;4.80;;;34.40;89.30;;;;;;5074991;28;20487;-69
2023/08/22 11:53:47;;;;;;;8.07;5.10;;;34.30;90.40;;;;;;5074942;28;20498;-68
2023/08/22 11:56:15;;;;;;;6.20;4.70;;;34.30;90.30;;;;;;5075155;28;20565;-68
2023/08/22 11:58:52;;;;;;;16.63;5.20;;;34.30;89.40;;;;;;5074668;28;20570;-69
2023/08/22 12:01:22;;;;;;;9.00;5.33;;;34.30;90.60;;;;;;5074826;28;20966;-68
2023/08/22 12:03:49;;;;;;;6.80;4.93;;;34.30;90.00;;;;;;5073334;28;21006;-68
2023/08/22 12:08:56;;;;;;;8.27;4.87;;;34.40;91.30;;;;;;5107538;22;20829;-68
2023/08/22 12:16:36;;;;;;;5.97;4.67;;;35.00;88.80;;;;;;5464646;22;20497;-68
2023/08/22 12:19:11;;;;;;;8.13;4.90;;;34.70;88.20;;;;;;5267133;22;20492;-69
2023/08/22 12:21:38;;;;;;;7.67;4.67;;;34.20;89.00;;;;;;5071786;28;20966;-69
2023/08/22 12:24:06;;;;;;;6.60;4.67;;;34.00;90.10;;;;;;5074348;28;20457;-69
2023/08/22 12:26:33;;;;;;;8.30;4.80;;;33.50;91.20;;;;;;5074425;28;20489;-68
2023/08/22 12:29:00;;;;;;;7.13;5.00;;;33.40;92.20;;;;;;5073773;28;20796;-69
2023/08/22 12:31:31;;;;;;;10.80;4.73;;;33.40;93.50;;;;;;5072099;28;20461;-70
2023/08/22 12:34:00;;;;;;;6.33;4.50;;;33.50;93.60;;;;;;5073374;28;20453;-70
2023/08/22 12:36:27;;;;;;;6.97;4.70;;;33.70;92.70;;;;;;5073626;28;20942;-69
2023/08/22 12:38:54;;;;;;;6.90;4.83;;;33.80;91.30;;;;;;5074191;28;20530;-69
2023/08/22 12:41:21;;;;;;;9.63;5.07;;;34.10;89.40;;;;;;5074157;28;20453;-69
2023/08/22 12:43:48;;;;;;;6.50;4.53;;;34.40;90.40;;;;;;5073958;28;20480;-69
2023/08/22 12:46:15;;;;;;;5.23;4.20;;;34.50;89.70;;;;;;5074251;28;20452;-68
2023/08/22 12:48:42;;;;;;;7.50;4.87;;;34.70;91.00;;;;;;5073868;28;21035;-69
2023/08/22 12:51:11;;;;;;;9.37;4.40;;;35.00;88.20;;;;;;5073882;28;20456;-69
2023/08/22 12:53:38;;;;;;;6.83;4.57;;;35.00;88.50;;;;;;5073217;28;20828;-70
2023/08/22 12:56:05;;;;;;;5.93;4.10;;;35.20;87.70;;;;;;5073615;28;20494;-69
2023/08/22 12:58:33;;;;;;;6.60;4.70;;;35.40;88.50;;;;;;5073601;28;20488;-69